createdAt,value
2017-07-28T00:01:14.340Z,18.50
2017-07-28T00:03:42.682Z,17.40
2017-07-28T00:06:10.987Z,19.13
2017-07-28T00:08:39.314Z,17.93
2017-07-28T00:11:07.598Z,20.03
2017-07-28T00:13:35.914Z,21.57
2017-07-28T00:16:04.222Z,19.40
2017-07-28T00:18:32.551Z,18.73
2017-07-28T00:21:00.987Z,19.40
2017-07-28T00:23:30.072Z,20.00
2017-07-28T00:25:58.399Z,21.70
2017-07-28T00:28:26.727Z,18.37
2017-07-28T00:30:55.045Z,20.47
2017-07-28T00:33:23.354Z,19.37
2017-07-28T00:35:52.117Z,20.97
2017-07-28T00:38:20.447Z,19.20
2017-07-28T00:40:48.790Z,20.20
2017-07-28T00:43:17.074Z,17.70
2017-07-28T00:45:45.354Z,22.07
2017-07-28T00:48:13.684Z,19.87
2017-07-28T00:50:41.999Z,17.83
2017-07-28T00:53:10.341Z,16.93
2017-07-28T00:55:38.787Z,18.03
2017-07-28T00:58:07.113Z,18.97
2017-07-28T01:00:36.266Z,18.20
2017-07-28T01:03:04.595Z,19.43
2017-07-28T01:05:32.931Z,19.60
2017-07-28T01:08:01.244Z,19.93
2017-07-28T01:10:29.550Z,20.43
2017-07-28T01:12:57.873Z,18.50
2017-07-28T01:15:26.179Z,22.20
2017-07-28T01:17:54.500Z,19.87
2017-07-28T01:20:22.836Z,21.13
2017-07-28T01:22:51.123Z,21.70
2017-07-28T01:25:19.498Z,20.57
2017-07-28T01:27:47.803Z,21.43
2017-07-28T01:30:16.118Z,19.73
2017-07-28T01:32:44.430Z,19.37
2017-07-28T01:35:12.964Z,21.57
2017-07-28T01:37:41.563Z,21.13
2017-07-28T01:40:09.892Z,20.27
2017-07-28T01:42:38.230Z,21.00
2017-07-28T01:45:06.546Z,20.47
2017-07-28T01:47:34.875Z,20.37
2017-07-28T01:50:03.196Z,21.33
2017-07-28T01:52:31.715Z,19.07
2017-07-28T01:55:00.034Z,19.17
2017-07-28T01:57:28.363Z,21.70
2017-07-28T01:59:57.477Z,18.23
2017-07-28T02:02:25.761Z,19.47
2017-07-28T02:04:54.121Z,20.00
2017-07-28T02:07:22.426Z,21.27
2017-07-28T02:09:50.915Z,19.07
2017-07-28T02:12:19.222Z,23.13
2017-07-28T02:14:47.550Z,20.37
2017-07-28T02:17:15.911Z,21.97
2017-07-28T02:19:44.215Z,20.70
2017-07-28T02:22:12.548Z,21.50
2017-07-28T02:24:40.876Z,18.87
2017-07-28T02:27:09.512Z,20.30
2017-07-28T02:29:37.851Z,20.83
2017-07-28T02:32:06.174Z,19.17
2017-07-28T02:34:34.553Z,21.27
2017-07-28T02:37:03.615Z,20.63
2017-07-28T02:39:32.828Z,20.50
2017-07-28T02:42:01.150Z,20.87
2017-07-28T02:44:29.457Z,19.00
2017-07-28T02:46:57.807Z,16.87
2017-07-28T02:49:26.126Z,17.77
2017-07-28T02:51:55.234Z,19.80
2017-07-28T02:54:24.298Z,18.33
2017-07-28T02:56:52.994Z,18.43
2017-07-28T02:59:21.301Z,18.33
2017-07-28T03:01:49.630Z,18.13
2017-07-28T03:04:17.959Z,16.87
2017-07-28T03:06:47.002Z,19.13
2017-07-28T03:09:15.325Z,18.53
2017-07-28T03:11:43.635Z,17.50
2017-07-28T03:14:11.964Z,18.43
2017-07-28T03:16:40.252Z,18.30
2017-07-28T03:19:08.595Z,20.43
2017-07-28T03:21:36.906Z,20.23
2017-07-28T03:24:05.234Z,16.63
2017-07-28T03:26:33.553Z,17.90
2017-07-28T03:29:02.649Z,18.70
2017-07-28T03:31:30.978Z,16.93
2017-07-28T03:33:59.285Z,19.97
2017-07-28T03:36:28.387Z,19.30
2017-07-28T03:38:56.837Z,19.97
2017-07-28T03:41:25.178Z,18.80
2017-07-28T03:43:53.492Z,18.47
2017-07-28T03:46:21.846Z,18.37
2017-07-28T03:48:50.142Z,17.67
2017-07-28T03:51:18.491Z,19.53
2017-07-28T03:53:46.798Z,17.90
2017-07-28T03:56:15.107Z,16.50
2017-07-28T03:58:43.444Z,16.93
2017-07-28T04:01:11.752Z,17.50
2017-07-28T04:03:40.115Z,19.43
2017-07-28T04:06:09.220Z,18.80
2017-07-28T04:08:37.615Z,18.93
2017-07-28T04:11:05.938Z,17.20
2017-07-28T04:13:34.255Z,18.67
2017-07-28T04:16:03.363Z,17.70
2017-07-28T04:18:32.441Z,17.23
2017-07-28T04:21:00.782Z,16.30
2017-07-28T04:23:29.107Z,16.43
2017-07-28T04:25:58.198Z,14.20
2017-07-28T04:28:26.495Z,16.17
2017-07-28T04:30:54.815Z,14.13
2017-07-28T04:33:23.137Z,18.33
2017-07-28T04:35:51.492Z,15.43
2017-07-28T04:38:19.861Z,18.83
2017-07-28T04:40:48.151Z,16.33
2017-07-28T04:43:16.494Z,13.90
2017-07-28T04:45:44.859Z,13.60
2017-07-28T04:48:13.178Z,13.43
2017-07-28T04:50:42.270Z,13.53
2017-07-28T04:53:11.000Z,16.97
2017-07-28T04:55:39.306Z,14.40
2017-07-28T04:58:07.623Z,15.50
2017-07-28T05:00:36.723Z,14.23
2017-07-28T05:03:05.050Z,13.60
2017-07-28T05:05:33.399Z,14.53
2017-07-28T05:08:01.722Z,17.10
2017-07-28T05:10:30.064Z,14.27
2017-07-28T05:12:58.451Z,14.57
2017-07-28T05:15:26.775Z,13.73
2017-07-28T05:17:55.851Z,14.63
2017-07-28T05:20:24.179Z,14.20
2017-07-28T05:22:52.636Z,14.10
2017-07-28T05:25:20.949Z,12.33
2017-07-28T05:27:49.283Z,13.63
2017-07-28T05:30:18.365Z,14.53
2017-07-28T05:32:46.725Z,14.10
2017-07-28T05:35:15.030Z,13.60
2017-07-28T05:37:44.463Z,12.90
2017-07-28T05:40:13.512Z,12.40
2017-07-28T05:42:41.976Z,14.17
2017-07-28T05:45:10.293Z,13.03
2017-07-28T05:47:38.618Z,14.87
2017-07-28T05:50:06.970Z,14.30
2017-07-28T05:52:36.024Z,12.23
2017-07-28T05:55:04.378Z,12.47
2017-07-28T05:57:32.902Z,11.87
2017-07-28T06:00:01.999Z,15.97
2017-07-28T06:02:31.069Z,11.60
2017-07-28T06:04:59.407Z,12.27
2017-07-28T06:07:27.737Z,13.07
2017-07-28T06:09:56.060Z,14.07
2017-07-28T06:12:24.578Z,12.23
2017-07-28T06:14:53.178Z,11.97
2017-07-28T06:17:22.255Z,16.50
2017-07-28T06:19:50.580Z,15.20
2017-07-28T06:22:18.923Z,15.17
2017-07-28T06:24:47.276Z,12.47
2017-07-28T06:27:15.593Z,13.30
2017-07-28T06:29:43.910Z,14.00
2017-07-28T06:32:12.251Z,14.53
2017-07-28T06:34:41.400Z,12.00
2017-07-28T06:37:09.943Z,12.33
2017-07-28T06:39:38.267Z,12.43
2017-07-28T06:42:06.548Z,12.47
2017-07-28T06:44:34.875Z,15.57
2017-07-28T06:47:03.224Z,14.80
2017-07-28T06:49:31.534Z,14.23
2017-07-28T06:51:59.837Z,14.30
2017-07-28T06:54:28.205Z,17.63
2017-07-28T06:56:56.515Z,13.87
2017-07-28T06:59:24.870Z,18.17
2017-07-28T07:01:53.180Z,16.30
2017-07-28T07:04:22.375Z,14.30
2017-07-28T07:06:51.459Z,15.90
2017-07-28T07:09:19.772Z,14.33
2017-07-28T07:11:48.105Z,13.00
2017-07-28T07:14:16.413Z,14.70
2017-07-28T07:16:45.511Z,13.50
2017-07-28T07:19:14.577Z,18.97
2017-07-28T07:21:42.907Z,19.10
2017-07-28T07:24:11.214Z,12.80
2017-07-28T07:26:40.038Z,14.03
2017-07-28T07:29:08.368Z,16.30
2017-07-28T07:31:36.667Z,14.10
2017-07-28T07:34:05.782Z,13.53
2017-07-28T07:36:34.150Z,16.20
2017-07-28T07:39:02.487Z,15.57
2017-07-28T07:41:30.766Z,16.30
2017-07-28T07:43:59.104Z,17.27
2017-07-28T07:46:28.169Z,18.37
2017-07-28T07:48:57.292Z,19.47
2017-07-28T07:51:25.611Z,16.13
2017-07-28T07:53:53.950Z,19.07
2017-07-28T07:56:22.278Z,22.33
2017-07-28T07:58:50.931Z,21.77
2017-07-28T08:01:19.248Z,21.07
2017-07-28T08:03:47.564Z,21.37
2017-07-28T08:06:15.922Z,23.73
2017-07-28T08:08:45.015Z,21.97
2017-07-28T08:11:14.132Z,22.33
2017-07-28T08:13:42.582Z,20.67
2017-07-28T08:16:10.917Z,18.30
2017-07-28T08:18:39.233Z,25.70
2017-07-28T08:21:07.631Z,25.77
2017-07-28T08:23:36.711Z,22.80
2017-07-28T08:26:05.198Z,22.33
2017-07-28T08:28:34.283Z,25.67
2017-07-28T08:31:03.399Z,26.43
2017-07-28T08:33:31.940Z,20.00
2017-07-28T08:36:00.253Z,20.70
2017-07-28T08:38:28.616Z,26.97
2017-07-28T08:40:56.925Z,21.33
2017-07-28T08:43:26.005Z,20.53
2017-07-28T08:45:55.103Z,21.10
2017-07-28T08:48:23.694Z,19.10
2017-07-28T08:50:51.998Z,17.43
2017-07-28T08:53:20.330Z,18.73
2017-07-28T08:55:49.437Z,21.90
2017-07-28T08:58:17.768Z,17.97
2017-07-28T09:00:46.131Z,15.77
2017-07-28T09:03:14.430Z,18.83
2017-07-28T09:05:43.160Z,15.83
2017-07-28T09:08:11.467Z,19.63
2017-07-28T09:10:39.775Z,19.13
2017-07-28T09:13:08.124Z,18.60
2017-07-28T09:15:36.407Z,18.50
2017-07-28T09:18:04.734Z,18.83
2017-07-28T09:20:33.804Z,17.23
2017-07-28T09:23:02.135Z,15.47
2017-07-28T09:25:30.472Z,14.67
2017-07-28T09:27:59.571Z,15.53
2017-07-28T09:30:28.643Z,17.20
2017-07-28T09:32:58.084Z,15.90
2017-07-28T09:35:26.399Z,13.77
2017-07-28T09:37:54.740Z,15.17
2017-07-28T09:40:23.109Z,13.53
2017-07-28T09:42:52.158Z,13.03
2017-07-28T09:45:20.675Z,12.73
2017-07-28T09:47:49.018Z,13.17
2017-07-28T09:50:18.112Z,13.03
2017-07-28T09:52:46.451Z,12.13
2017-07-28T09:55:14.770Z,15.20
2017-07-28T09:57:43.094Z,17.30
2017-07-28T10:00:11.464Z,16.10
2017-07-28T10:02:39.786Z,17.87
2017-07-28T10:05:08.110Z,16.53
2017-07-28T10:07:36.464Z,16.43
2017-07-28T10:10:04.795Z,19.13
2017-07-28T10:12:33.143Z,14.83
2017-07-28T10:15:01.630Z,16.13
2017-07-28T10:17:30.721Z,17.87
2017-07-28T10:19:59.051Z,19.20
2017-07-28T10:22:27.571Z,15.87
2017-07-28T10:24:56.661Z,20.60
2017-07-28T10:27:24.967Z,20.60
2017-07-28T10:29:53.308Z,20.27
2017-07-28T10:32:22.396Z,20.53
2017-07-28T10:34:51.506Z,17.90
2017-07-28T10:37:20.583Z,20.13
2017-07-28T10:39:48.947Z,15.27
2017-07-28T10:42:18.047Z,14.60
2017-07-28T10:44:46.367Z,15.53
2017-07-28T10:47:14.672Z,17.23
2017-07-28T10:49:43.008Z,20.23
2017-07-28T10:52:12.074Z,18.57
2017-07-28T10:54:40.589Z,19.20
2017-07-28T10:57:09.658Z,17.17
2017-07-28T10:59:37.968Z,16.13
2017-07-28T11:02:06.301Z,15.67
2017-07-28T11:04:34.598Z,13.60
2017-07-28T11:07:03.718Z,14.20
2017-07-28T11:09:32.023Z,27.37
2017-07-28T11:12:00.462Z,18.60
2017-07-28T11:14:28.762Z,16.43
2017-07-28T11:16:57.074Z,21.73
2017-07-28T11:19:25.409Z,22.40
2017-07-28T11:21:53.730Z,19.43
2017-07-28T11:24:22.046Z,26.83
2017-07-28T11:26:50.347Z,28.60
2017-07-28T11:29:18.690Z,20.33
2017-07-28T11:31:46.979Z,33.00
2017-07-28T11:34:16.056Z,21.13
2017-07-28T11:36:44.349Z,16.83
2017-07-28T11:39:12.774Z,16.27
2017-07-28T11:41:41.086Z,12.07
2017-07-28T11:44:10.166Z,14.90
2017-07-28T11:46:38.509Z,16.40
2017-07-28T11:49:06.814Z,13.80
2017-07-28T11:51:35.150Z,17.53
2017-07-28T11:54:03.679Z,28.53
2017-07-28T11:56:32.045Z,33.20
2017-07-28T11:59:00.340Z,32.63
2017-07-28T12:01:28.803Z,36.90
2017-07-28T12:03:57.110Z,35.23
2017-07-28T12:06:25.403Z,14.90
2017-07-28T12:08:53.727Z,30.43
2017-07-28T12:11:22.036Z,24.43
2017-07-28T12:13:50.383Z,28.87
2017-07-28T12:16:18.692Z,17.90
2017-07-28T12:18:47.163Z,17.90
2017-07-28T12:21:15.526Z,21.20
2017-07-28T12:23:43.879Z,10.53
2017-07-28T12:26:12.225Z,11.27
2017-07-28T12:28:40.791Z,9.87
2017-07-28T12:31:09.868Z,9.90
2017-07-28T12:33:38.154Z,12.43
2017-07-28T12:36:07.236Z,8.30
2017-07-28T12:38:35.524Z,8.37
2017-07-28T12:41:04.618Z,9.93
2017-07-28T12:43:33.686Z,8.23
2017-07-28T12:46:02.202Z,10.00
2017-07-28T12:48:30.530Z,8.70
2017-07-28T12:50:58.874Z,10.93
2017-07-28T12:53:27.190Z,9.70
2017-07-28T12:55:55.829Z,10.23
2017-07-28T12:58:24.114Z,8.80
2017-07-28T13:00:52.409Z,8.10
2017-07-28T13:03:20.728Z,9.70
2017-07-28T13:05:49.016Z,9.70
2017-07-28T13:08:17.329Z,10.63
2017-07-28T13:10:45.634Z,8.97
2017-07-28T13:13:14.179Z,13.67
2017-07-28T13:15:42.554Z,10.07
2017-07-28T13:18:11.002Z,10.60
2017-07-28T13:20:39.331Z,12.80
2017-07-28T13:23:07.649Z,7.27
2017-07-28T13:25:35.934Z,11.97
2017-07-28T13:28:05.206Z,8.77
2017-07-28T13:30:33.548Z,10.23
2017-07-28T13:33:01.854Z,9.17
2017-07-28T13:35:30.183Z,10.30
2017-07-28T13:37:58.495Z,12.30
2017-07-28T13:40:26.828Z,8.47
2017-07-28T13:42:55.151Z,10.70
2017-07-28T13:45:23.588Z,15.67
2017-07-28T13:47:51.903Z,9.77
2017-07-28T13:50:20.183Z,7.23
2017-07-28T13:52:49.418Z,9.07
2017-07-28T13:55:18.510Z,8.97
2017-07-28T13:57:46.846Z,9.43
2017-07-28T14:00:15.178Z,9.93
2017-07-28T14:02:44.364Z,10.57
2017-07-28T14:05:12.669Z,9.37
2017-07-28T14:07:40.986Z,11.63
2017-07-28T14:10:09.325Z,12.60
2017-07-28T14:12:37.631Z,11.50
2017-07-28T14:15:05.975Z,11.00
2017-07-28T14:17:34.285Z,10.70
2017-07-28T14:20:02.615Z,6.57
2017-07-28T14:22:30.900Z,8.10
2017-07-28T14:24:59.243Z,7.07
2017-07-28T14:27:27.551Z,6.93
2017-07-28T14:29:56.623Z,9.43
2017-07-28T14:32:24.913Z,6.47
2017-07-28T14:34:53.306Z,5.87
2017-07-28T14:37:21.602Z,8.73
2017-07-28T14:39:49.903Z,5.93
2017-07-28T14:42:18.219Z,6.20
2017-07-28T14:44:46.522Z,7.70
2017-07-28T14:47:14.820Z,6.87
2017-07-28T14:49:43.148Z,9.10
2017-07-28T14:52:11.542Z,9.90
2017-07-28T14:54:39.971Z,8.00
2017-07-28T14:57:08.635Z,10.50
2017-07-28T14:59:37.048Z,7.57
2017-07-28T15:02:05.611Z,8.23
2017-07-28T15:04:33.954Z,9.13
2017-07-28T15:07:02.334Z,7.60
2017-07-28T15:09:30.700Z,7.10
2017-07-28T15:11:59.048Z,8.47
2017-07-28T15:14:27.389Z,8.47
2017-07-28T15:16:55.695Z,8.73
2017-07-28T15:19:24.064Z,9.33
2017-07-28T15:21:52.477Z,10.30
2017-07-28T15:24:21.716Z,8.33
2017-07-28T15:26:50.033Z,10.70
2017-07-28T15:29:18.316Z,8.30
2017-07-28T15:31:46.619Z,7.87
2017-07-28T15:34:14.915Z,10.47
2017-07-28T15:36:43.417Z,8.90
2017-07-28T15:39:11.711Z,8.40
2017-07-28T15:41:40.810Z,8.50
2017-07-28T15:44:09.885Z,10.40
2017-07-28T15:46:38.419Z,11.30
2017-07-28T15:49:06.791Z,11.87
2017-07-28T15:51:35.100Z,11.87
2017-07-28T15:54:03.445Z,9.93
2017-07-28T15:56:31.872Z,10.73
2017-07-28T15:59:00.195Z,8.57
2017-07-28T16:01:29.258Z,12.57
2017-07-28T16:03:57.598Z,11.47
2017-07-28T16:06:25.919Z,11.37
2017-07-28T16:08:55.040Z,11.70
2017-07-28T16:11:23.340Z,10.90
2017-07-28T16:13:51.703Z,13.37
2017-07-28T16:16:20.038Z,14.70
2017-07-28T16:18:49.465Z,12.87
2017-07-28T16:21:17.851Z,12.70
2017-07-28T16:23:46.158Z,11.47
2017-07-28T16:26:14.463Z,8.80
2017-07-28T16:28:42.761Z,11.57
2017-07-28T16:31:11.074Z,12.03
2017-07-28T16:33:39.382Z,9.63
2017-07-28T16:36:07.706Z,11.40
2017-07-28T16:38:36.069Z,14.27
2017-07-28T16:41:04.516Z,13.83
2017-07-28T16:43:33.389Z,12.23
2017-07-28T16:46:01.698Z,13.20
2017-07-28T16:48:30.030Z,11.40
2017-07-28T16:50:58.384Z,14.87
2017-07-28T16:53:26.713Z,16.07
2017-07-28T16:55:55.079Z,11.13
2017-07-28T16:58:23.495Z,8.30
2017-07-28T17:00:51.812Z,7.33
2017-07-28T17:03:20.854Z,6.80
2017-07-28T17:05:49.974Z,7.73
2017-07-28T17:08:19.051Z,6.93
2017-07-28T17:10:47.372Z,6.30
2017-07-28T17:13:15.718Z,8.43
2017-07-28T17:15:44.216Z,6.33
2017-07-28T17:18:13.277Z,7.70
2017-07-28T17:20:41.579Z,7.90
2017-07-28T17:23:09.910Z,9.43
2017-07-28T17:25:38.219Z,7.53
2017-07-28T17:28:06.561Z,5.83
2017-07-28T17:30:34.853Z,5.40
2017-07-28T17:33:03.178Z,6.80
2017-07-28T17:35:31.472Z,7.53
2017-07-28T17:37:59.814Z,8.93
2017-07-28T17:40:28.883Z,6.43
2017-07-28T17:42:57.206Z,8.83
2017-07-28T17:45:25.498Z,9.87
2017-07-28T17:47:53.841Z,10.30
2017-07-28T17:50:22.168Z,9.73
2017-07-28T17:52:50.692Z,11.37
2017-07-28T17:55:19.767Z,10.30
2017-07-28T17:57:48.871Z,9.90
2017-07-28T18:00:17.967Z,7.70
2017-07-28T18:02:47.047Z,7.00
2017-07-28T18:05:15.353Z,6.93
2017-07-28T18:07:43.680Z,6.60
2017-07-28T18:10:12.023Z,6.57
2017-07-28T18:12:40.335Z,7.37
2017-07-28T18:15:08.847Z,7.13
2017-07-28T18:17:37.978Z,6.63
2017-07-28T18:20:06.286Z,7.40
2017-07-28T18:22:34.663Z,9.13
2017-07-28T18:25:02.950Z,8.40
2017-07-28T18:27:31.470Z,8.00
2017-07-28T18:29:59.766Z,8.03
2017-07-28T18:32:28.114Z,6.07
2017-07-28T18:34:57.177Z,8.43
2017-07-28T18:37:25.664Z,6.33
2017-07-28T18:39:53.960Z,7.03
2017-07-28T18:42:23.042Z,8.57
2017-07-28T18:44:51.379Z,7.70
2017-07-28T18:47:19.705Z,6.17
2017-07-28T18:49:48.805Z,8.50
2017-07-28T18:52:17.872Z,5.87
2017-07-28T18:54:46.175Z,6.03
2017-07-28T18:57:14.498Z,9.13
2017-07-28T18:59:43.077Z,7.73
2017-07-28T19:02:11.354Z,6.80
2017-07-28T19:04:39.712Z,8.67
2017-07-28T19:07:08.009Z,5.83
2017-07-28T19:09:36.346Z,6.53
2017-07-28T19:12:05.419Z,6.90
2017-07-28T19:14:33.758Z,6.70
2017-07-28T19:17:02.040Z,6.17
2017-07-28T19:19:30.466Z,6.47
2017-07-28T19:21:58.801Z,7.40
2017-07-28T19:24:27.094Z,7.87
2017-07-28T19:26:55.391Z,8.50
2017-07-28T19:29:23.757Z,9.93
2017-07-28T19:31:52.096Z,8.73
2017-07-28T19:34:20.385Z,7.40
2017-07-28T19:36:48.738Z,7.60
2017-07-28T19:39:17.036Z,7.73
2017-07-28T19:41:45.343Z,6.60
2017-07-28T19:44:13.648Z,7.07
2017-07-28T19:46:42.044Z,7.30
2017-07-28T19:49:10.358Z,7.13
2017-07-28T19:51:38.689Z,7.67
2017-07-28T19:54:07.025Z,8.90
2017-07-28T19:56:35.314Z,7.70
2017-07-28T19:59:03.659Z,6.43
2017-07-28T20:01:31.967Z,8.10
2017-07-28T20:04:01.063Z,8.10
2017-07-28T20:06:29.368Z,7.77
2017-07-28T20:08:57.680Z,7.13
2017-07-28T20:11:25.980Z,9.13
2017-07-28T20:13:54.460Z,7.93
2017-07-28T20:16:22.771Z,8.53
2017-07-28T20:18:51.827Z,8.40
2017-07-28T20:21:20.146Z,10.47
2017-07-28T20:23:48.457Z,8.30
2017-07-28T20:26:16.794Z,10.23
2017-07-28T20:28:45.092Z,8.30
2017-07-28T20:31:13.415Z,8.33
2017-07-28T20:33:42.508Z,7.27
2017-07-28T20:36:11.633Z,8.00
2017-07-28T20:38:39.947Z,7.87
2017-07-28T20:41:08.391Z,7.07
2017-07-28T20:43:36.708Z,8.87
2017-07-28T20:46:04.989Z,9.83
2017-07-28T20:48:33.640Z,10.93
2017-07-28T20:51:01.952Z,10.87
2017-07-28T20:53:30.295Z,8.90
2017-07-28T20:55:58.602Z,8.33
2017-07-28T20:58:27.052Z,9.83
2017-07-28T21:00:55.386Z,9.70
2017-07-28T21:03:24.456Z,8.83
2017-07-28T21:05:52.789Z,10.53
2017-07-28T21:08:21.103Z,8.80
2017-07-28T21:10:49.430Z,9.33
2017-07-28T21:13:17.755Z,13.17
2017-07-28T21:15:46.112Z,11.63
2017-07-28T21:18:14.422Z,9.63
2017-07-28T21:20:42.893Z,9.53
2017-07-28T21:23:11.215Z,7.63
2017-07-28T21:25:39.527Z,7.87
2017-07-28T21:28:07.867Z,8.63
2017-07-28T21:30:36.165Z,9.57
2017-07-28T21:33:05.258Z,8.37
2017-07-28T21:35:34.187Z,9.20
2017-07-28T21:38:02.509Z,9.60
2017-07-28T21:40:30.825Z,10.07
2017-07-28T21:42:59.487Z,8.90
2017-07-28T21:45:27.769Z,9.33
2017-07-28T21:47:56.083Z,8.60
2017-07-28T21:50:24.459Z,8.10
2017-07-28T21:52:53.605Z,6.73
2017-07-28T21:55:21.935Z,7.77
2017-07-28T21:57:50.250Z,10.80
2017-07-28T22:00:19.352Z,10.53
2017-07-28T22:02:47.671Z,9.30
2017-07-28T22:05:16.003Z,7.73
2017-07-28T22:07:44.384Z,7.97
2017-07-28T22:10:12.810Z,10.27
2017-07-28T22:12:41.133Z,12.57
2017-07-28T22:15:09.499Z,11.63
2017-07-28T22:17:38.611Z,10.40
2017-07-28T22:20:06.934Z,17.20
2017-07-28T22:22:35.240Z,11.80
2017-07-28T22:25:03.554Z,12.00
2017-07-28T22:27:32.215Z,10.20
2017-07-28T22:30:00.515Z,8.13
2017-07-28T22:32:28.813Z,7.50
2017-07-28T22:34:57.152Z,8.47
2017-07-28T22:37:26.267Z,11.70
2017-07-28T22:39:54.597Z,5.90
2017-07-28T22:42:22.908Z,7.63
2017-07-28T22:44:51.263Z,6.73
2017-07-28T22:47:20.345Z,7.27
2017-07-28T22:49:48.674Z,8.37
2017-07-28T22:52:16.998Z,8.47
2017-07-28T22:54:45.352Z,8.70
2017-07-28T22:57:13.683Z,7.67
2017-07-28T22:59:42.022Z,7.00
2017-07-28T23:02:10.322Z,7.90
2017-07-28T23:04:38.850Z,8.03
2017-07-28T23:07:07.158Z,7.20
2017-07-28T23:09:36.251Z,6.40
2017-07-28T23:12:04.567Z,7.00
2017-07-28T23:14:32.871Z,6.43
2017-07-28T23:17:01.207Z,5.90
2017-07-28T23:19:29.532Z,6.80
2017-07-28T23:21:57.879Z,5.60
2017-07-28T23:24:26.924Z,5.70
2017-07-28T23:26:55.643Z,7.20
2017-07-28T23:29:24.716Z,8.27
2017-07-28T23:31:53.012Z,5.80
2017-07-28T23:34:21.354Z,10.60
2017-07-28T23:36:49.655Z,6.33
2017-07-28T23:39:17.973Z,7.83
2017-07-28T23:41:46.276Z,5.93
2017-07-28T23:44:14.710Z,6.77
2017-07-28T23:46:43.026Z,8.07
2017-07-28T23:49:11.352Z,8.23
2017-07-28T23:51:39.671Z,9.13
2017-07-28T23:54:08.302Z,10.80
2017-07-28T23:56:36.631Z,10.77
2017-07-28T23:59:04.934Z,8.30
